createdAt,value
2019-02-18T00:00:13.915Z,101930.69
2019-02-18T00:02:44.109Z,101926.11
2019-02-18T00:05:12.602Z,101925.20
2019-02-18T00:07:40.326Z,101923.69
2019-02-18T00:10:07.409Z,101919.00
2019-02-18T00:12:34.687Z,101913.72
2019-02-18T00:15:02.520Z,101916.12
2019-02-18T00:17:30.541Z,101917.49
2019-02-18T00:19:57.613Z,101913.09
2019-02-18T00:22:24.879Z,101908.56
2019-02-18T00:24:53.040Z,101908.56
2019-02-18T00:27:20.125Z,101899.61
2019-02-18T00:29:48.109Z,101907.79
2019-02-18T00:32:15.202Z,101910.59
2019-02-18T00:34:42.771Z,101909.31
2019-02-18T00:37:09.842Z,101913.11
2019-02-18T00:39:37.057Z,101907.94
2019-02-18T00:42:04.899Z,101909.55
2019-02-18T00:44:33.692Z,101904.42
2019-02-18T00:47:01.166Z,101900.48
2019-02-18T00:49:28.593Z,101900.48
2019-02-18T00:51:55.668Z,101901.98
2019-02-18T00:54:23.107Z,101906.30
2019-02-18T00:56:51.071Z,101898.14
2019-02-18T00:59:18.833Z,101901.12
2019-02-18T01:01:46.902Z,101899.83
2019-02-18T01:04:14.342Z,101902.14
2019-02-18T01:06:42.027Z,101902.14
2019-02-18T01:09:11.835Z,101901.27
2019-02-18T01:11:39.600Z,101903.18
2019-02-18T01:14:07.804Z,101897.44
2019-02-18T01:16:34.880Z,101897.45
2019-02-18T01:19:02.478Z,101896.77
2019-02-18T01:21:30.174Z,101895.93
2019-02-18T01:23:57.602Z,101897.32
2019-02-18T01:26:25.030Z,101893.32
2019-02-18T01:28:52.080Z,101898.00
2019-02-18T01:31:19.197Z,101892.59
2019-02-18T01:33:46.277Z,101896.61
2019-02-18T01:36:14.460Z,101886.25
2019-02-18T01:38:41.532Z,101884.56
2019-02-18T01:41:08.956Z,101882.92
2019-02-18T01:43:37.827Z,101884.25
2019-02-18T01:46:05.079Z,101879.98
2019-02-18T01:48:33.201Z,101877.80
2019-02-18T01:51:00.298Z,101878.34
2019-02-18T01:53:28.461Z,101877.38
2019-02-18T01:55:55.550Z,101877.27
2019-02-18T01:58:22.626Z,101872.20
2019-02-18T02:00:50.471Z,101872.66
2019-02-18T02:03:18.233Z,101875.41
2019-02-18T02:05:46.004Z,101874.97
2019-02-18T02:08:13.814Z,101873.41
2019-02-18T02:10:41.274Z,101873.11
2019-02-18T02:13:37.450Z,101874.02
2019-02-18T02:16:10.154Z,101878.30
2019-02-18T02:18:38.409Z,101871.40
2019-02-18T02:21:06.898Z,101871.19
2019-02-18T02:23:35.073Z,101867.85
2019-02-18T02:26:02.568Z,101869.45
2019-02-18T02:28:29.921Z,101870.80
2019-02-18T02:31:01.039Z,101862.58
2019-02-18T02:33:31.347Z,101866.58
2019-02-18T02:35:58.947Z,101864.69
2019-02-18T02:38:26.668Z,101867.85
2019-02-18T02:40:54.745Z,101859.27
2019-02-18T02:43:22.451Z,101866.89
2019-02-18T02:45:50.470Z,101865.47
2019-02-18T02:48:18.855Z,101862.89
2019-02-18T02:50:46.516Z,101862.52
2019-02-18T02:53:14.275Z,101857.83
2019-02-18T02:55:41.643Z,101857.77
2019-02-18T02:58:09.051Z,101858.38
2019-02-18T03:00:37.179Z,101848.70
2019-02-18T03:03:04.618Z,101852.03
2019-02-18T03:05:32.274Z,101851.30
2019-02-18T03:08:00.039Z,101849.60
2019-02-18T03:10:27.238Z,101850.05
2019-02-18T03:12:54.656Z,101851.22
2019-02-18T03:15:23.842Z,101857.11
2019-02-18T03:17:51.606Z,101855.92
2019-02-18T03:20:18.974Z,101846.66
2019-02-18T03:22:46.041Z,101847.34
2019-02-18T03:25:16.274Z,101844.30
2019-02-18T03:27:45.427Z,101844.03
2019-02-18T03:30:49.696Z,101843.69
2019-02-18T03:33:21.095Z,101838.66
2019-02-18T03:35:48.863Z,101840.32
2019-02-18T03:38:16.326Z,101840.00
2019-02-18T03:40:43.684Z,101841.05
2019-02-18T03:43:11.330Z,101841.73
2019-02-18T03:45:38.422Z,101836.21
2019-02-18T03:48:05.472Z,101835.77
2019-02-18T03:50:32.515Z,101837.43
2019-02-18T03:52:59.899Z,101839.58
2019-02-18T03:55:27.289Z,101842.56
2019-02-18T03:57:54.473Z,101841.14
2019-02-18T04:00:21.797Z,101841.05
2019-02-18T04:02:48.863Z,101837.19
2019-02-18T04:05:16.202Z,101835.26
2019-02-18T04:07:43.957Z,101842.31
2019-02-18T04:10:11.413Z,101833.95
2019-02-18T04:12:38.579Z,101836.72
2019-02-18T04:15:08.238Z,101836.58
2019-02-18T04:17:37.065Z,101837.61
2019-02-18T04:20:04.730Z,101837.06
2019-02-18T04:22:32.697Z,101842.27
2019-02-18T04:25:00.347Z,101837.94
2019-02-18T04:27:27.713Z,101842.88
2019-02-18T04:29:55.066Z,101846.09
2019-02-18T04:32:22.932Z,101850.37
2019-02-18T04:34:50.706Z,101843.20
2019-02-18T04:37:19.176Z,101841.75
2019-02-18T04:39:47.066Z,101842.13
2019-02-18T04:42:16.243Z,101838.78
2019-02-18T04:44:44.107Z,101832.41
2019-02-18T04:47:11.461Z,101834.55
2019-02-18T04:49:38.852Z,101832.55
2019-02-18T04:52:07.607Z,101822.23
2019-02-18T04:54:34.973Z,101824.37
2019-02-18T04:57:02.314Z,101820.74
2019-02-18T04:59:29.971Z,101822.97
2019-02-18T05:01:57.009Z,101820.98
2019-02-18T05:04:24.093Z,101816.72
2019-02-18T05:06:52.391Z,101824.20
2019-02-18T05:09:19.435Z,101821.30
2019-02-18T05:11:47.411Z,101817.64
2019-02-18T05:14:14.504Z,101815.16
2019-02-18T05:16:41.573Z,101809.94
2019-02-18T05:19:10.465Z,101805.56
2019-02-18T05:21:38.630Z,101808.05
2019-02-18T05:24:05.823Z,101806.75
2019-02-18T05:26:33.268Z,101804.52
2019-02-18T05:29:00.463Z,101797.70
2019-02-18T05:31:29.301Z,101799.70
2019-02-18T05:33:56.380Z,101796.41
2019-02-18T05:36:23.442Z,101790.73
2019-02-18T05:38:50.612Z,101794.94
2019-02-18T05:41:17.644Z,101795.77
2019-02-18T05:43:44.726Z,101790.96
2019-02-18T05:46:12.059Z,101799.55
2019-02-18T05:48:39.518Z,101803.06
2019-02-18T05:51:06.972Z,101792.88
2019-02-18T05:53:35.867Z,101803.70
2019-02-18T05:56:03.244Z,101798.48
2019-02-18T05:58:30.390Z,101807.90
2019-02-18T06:00:59.357Z,101805.28
2019-02-18T06:03:26.439Z,101806.36
2019-02-18T06:05:53.499Z,101804.59
2019-02-18T06:08:21.225Z,101807.91
2019-02-18T06:10:48.531Z,101810.51
2019-02-18T06:13:15.663Z,101808.97
2019-02-18T06:15:42.768Z,101811.52
2019-02-18T06:18:09.796Z,101815.25
2019-02-18T06:20:36.874Z,101813.31
2019-02-18T06:23:03.966Z,101817.23
2019-02-18T06:25:31.439Z,101822.06
2019-02-18T06:27:58.478Z,101823.23
2019-02-18T06:30:25.556Z,101821.14
2019-02-18T06:32:52.612Z,101827.05
2019-02-18T06:35:19.696Z,101833.31
2019-02-18T06:37:47.854Z,101827.19
2019-02-18T06:40:14.906Z,101841.30
2019-02-18T06:42:41.988Z,101840.36
2019-02-18T06:45:35.097Z,101833.64
2019-02-18T06:48:32.085Z,101835.00
2019-02-18T06:50:59.797Z,101838.01
2019-02-18T06:53:27.251Z,101840.75
2019-02-18T06:55:54.917Z,101839.23
2019-02-18T06:58:49.099Z,101841.30
2019-02-18T07:01:29.355Z,101844.90
2019-02-18T07:04:13.225Z,101852.00
2019-02-18T07:07:09.944Z,101847.50
2019-02-18T07:10:03.305Z,101852.25
2019-02-18T07:12:50.629Z,101842.25
2019-02-18T07:15:18.092Z,101850.92
2019-02-18T07:17:45.743Z,101849.03
2019-02-18T07:20:13.117Z,101852.22
2019-02-18T07:22:41.262Z,101853.15
2019-02-18T07:25:09.146Z,101850.23
2019-02-18T07:27:37.303Z,101852.85
2019-02-18T07:30:07.182Z,101845.66
2019-02-18T07:32:34.580Z,101852.31
2019-02-18T07:35:01.632Z,101856.72
2019-02-18T07:37:29.563Z,101854.61
2019-02-18T07:40:01.499Z,101847.42
2019-02-18T07:42:26.405Z,101853.36
2019-02-18T07:44:53.454Z,101854.00
2019-02-18T07:47:20.525Z,101847.66
2019-02-18T07:49:47.906Z,101854.78
2019-02-18T07:52:14.962Z,101857.36
2019-02-18T07:54:42.039Z,101859.46
2019-02-18T07:57:09.212Z,101855.07
2019-02-18T07:59:36.262Z,101859.38
2019-02-18T08:02:05.182Z,101861.05
2019-02-18T08:04:36.474Z,101855.96
2019-02-18T08:07:03.830Z,101860.17
2019-02-18T08:09:32.005Z,101856.30
2019-02-18T08:11:59.053Z,101854.97
2019-02-18T08:14:26.094Z,101851.68
2019-02-18T08:16:54.447Z,101848.06
2019-02-18T08:19:23.281Z,101849.71
2019-02-18T08:21:50.358Z,101849.34
2019-02-18T08:24:17.403Z,101853.97
2019-02-18T08:26:44.480Z,101850.03
2019-02-18T08:29:11.523Z,101848.68
2019-02-18T08:31:39.686Z,101847.73
2019-02-18T08:34:06.738Z,101847.14
2019-02-18T08:36:33.930Z,101844.53
2019-02-18T08:39:01.040Z,101842.59
2019-02-18T08:41:31.301Z,101846.55
2019-02-18T08:43:59.389Z,101847.56
2019-02-18T08:46:26.458Z,101853.38
2019-02-18T08:48:53.507Z,101853.95
2019-02-18T08:51:20.570Z,101853.89
2019-02-18T08:53:47.991Z,101859.71
2019-02-18T08:56:15.173Z,101863.00
2019-02-18T08:58:42.693Z,101855.80
2019-02-18T09:01:10.126Z,101855.80
2019-02-18T09:03:41.858Z,101851.66
2019-02-18T09:06:08.953Z,101853.63
2019-02-18T09:08:36.371Z,101843.37
2019-02-18T09:11:05.010Z,101842.28
2019-02-18T09:13:32.495Z,101842.28
2019-02-18T09:16:00.586Z,101838.13
2019-02-18T09:18:29.066Z,101835.06
2019-02-18T09:20:56.498Z,101774.49
2019-02-18T09:24:02.258Z,101825.67
2019-02-18T09:26:30.330Z,101838.88
2019-02-18T09:29:03.752Z,101839.66
2019-02-18T09:31:33.430Z,101839.24
2019-02-18T09:34:01.098Z,101834.77
2019-02-18T09:36:29.987Z,101832.08
2019-02-18T09:38:57.183Z,101840.05
2019-02-18T09:41:26.338Z,101839.91
2019-02-18T09:43:54.104Z,101834.67
2019-02-18T09:46:21.583Z,101830.02
2019-02-18T09:48:50.035Z,101832.60
2019-02-18T09:51:18.516Z,101830.36
2019-02-18T09:53:45.607Z,101814.42
2019-02-18T09:56:13.052Z,101813.41
2019-02-18T09:58:40.089Z,101816.41
2019-02-18T10:01:07.836Z,101813.36
2019-02-18T10:03:35.801Z,101817.99
2019-02-18T10:06:03.463Z,101809.36
2019-02-18T10:08:30.882Z,101810.78
2019-02-18T10:10:58.582Z,101820.29
2019-02-18T10:13:26.072Z,101814.86
2019-02-18T10:15:55.254Z,101809.17
2019-02-18T10:18:23.710Z,101804.73
2019-02-18T10:20:52.119Z,101790.33
2019-02-18T10:23:19.764Z,101799.97
2019-02-18T10:25:46.825Z,101800.66
2019-02-18T10:28:14.155Z,101789.00
2019-02-18T10:30:41.640Z,101789.59
2019-02-18T10:33:08.978Z,101794.38
2019-02-18T10:35:36.161Z,101792.24
2019-02-18T10:38:03.779Z,101790.67
2019-02-18T10:40:31.149Z,101794.25
2019-02-18T10:42:58.191Z,101794.71
2019-02-18T10:45:25.443Z,101792.45
2019-02-18T10:47:53.663Z,101790.08
2019-02-18T10:50:20.697Z,101798.39
2019-02-18T10:52:47.740Z,101773.91
2019-02-18T10:55:15.400Z,101771.28
2019-02-18T10:57:42.741Z,101768.38
2019-02-18T11:00:10.669Z,101769.37
2019-02-18T11:02:38.941Z,101755.84
2019-02-18T11:05:06.997Z,101755.00
2019-02-18T11:07:34.213Z,101746.09
2019-02-18T11:10:03.988Z,101751.63
2019-02-18T11:12:32.369Z,101751.93
2019-02-18T11:14:59.852Z,101753.03
2019-02-18T11:17:26.918Z,101748.07
2019-02-18T11:19:54.037Z,101744.58
2019-02-18T11:22:21.891Z,101744.38
2019-02-18T11:24:49.564Z,101737.84
2019-02-18T11:27:16.592Z,101724.38
2019-02-18T11:29:44.379Z,101724.71
2019-02-18T11:32:12.890Z,101718.45
2019-02-18T11:34:41.531Z,101715.23
2019-02-18T11:37:09.601Z,101710.33
2019-02-18T11:39:37.262Z,101706.98
2019-02-18T11:42:04.619Z,101705.27
2019-02-18T11:44:32.075Z,101704.17
2019-02-18T11:46:59.450Z,101704.94
2019-02-18T11:49:26.490Z,101710.00
2019-02-18T11:51:54.138Z,101701.61
2019-02-18T11:54:21.214Z,101696.32
2019-02-18T11:56:49.238Z,101687.99
2019-02-18T11:59:24.026Z,101694.84
2019-02-18T12:01:46.032Z,101691.95
2019-02-18T12:04:13.485Z,101684.95
2019-02-18T12:06:40.830Z,101687.86
2019-02-18T12:09:08.505Z,101683.91
2019-02-18T12:14:05.857Z,101685.98
2019-02-18T12:16:33.515Z,101674.78
2019-02-18T12:19:01.487Z,101675.12
2019-02-18T12:21:28.842Z,101658.09
2019-02-18T12:23:56.239Z,101656.30
2019-02-18T12:26:23.680Z,101655.50
2019-02-18T12:28:51.518Z,101662.30
2019-02-18T12:31:18.938Z,101669.58
2019-02-18T12:33:46.375Z,101654.23
2019-02-18T12:36:13.461Z,101650.44
2019-02-18T12:38:41.155Z,101641.54
2019-02-18T12:41:08.929Z,101642.42
2019-02-18T12:43:36.669Z,101639.50
2019-02-18T12:46:04.060Z,101634.03
2019-02-18T12:48:31.477Z,101635.23
2019-02-18T12:50:58.917Z,101638.98
2019-02-18T12:53:25.974Z,101648.98
2019-02-18T12:55:53.046Z,101645.61
2019-02-18T12:58:21.216Z,101633.78
2019-02-18T13:00:49.488Z,101623.08
2019-02-18T13:03:16.571Z,101621.75
2019-02-18T13:05:43.943Z,101625.80
2019-02-18T13:08:12.793Z,101621.87
2019-02-18T13:10:39.876Z,101620.28
2019-02-18T13:13:07.503Z,101605.23
2019-02-18T13:15:35.879Z,101599.12
2019-02-18T13:20:31.400Z,101605.34
2019-02-18T13:23:00.393Z,101603.85
2019-02-18T13:25:29.090Z,101604.67
2019-02-18T13:27:57.382Z,101599.61
2019-02-18T13:30:24.453Z,101586.84
2019-02-18T13:32:52.650Z,101593.10
2019-02-18T13:35:21.130Z,101588.17
2019-02-18T13:37:48.501Z,101593.09
2019-02-18T13:40:15.895Z,101575.03
2019-02-18T13:42:44.746Z,101586.44
2019-02-18T13:45:12.103Z,101581.66
2019-02-18T13:47:39.863Z,101576.15
2019-02-18T13:50:07.387Z,101566.38
2019-02-18T13:52:34.775Z,101565.58
2019-02-18T13:55:02.541Z,101566.05
2019-02-18T13:57:29.703Z,101568.97
2019-02-18T13:59:57.055Z,101568.84
2019-02-18T14:02:24.336Z,101565.94
2019-02-18T14:04:51.909Z,101565.65
2019-02-18T14:07:19.081Z,101560.58
2019-02-18T14:09:47.225Z,101562.36
2019-02-18T14:12:16.364Z,101556.23
2019-02-18T14:14:43.325Z,101552.45
2019-02-18T14:17:10.680Z,101551.53
2019-02-18T14:19:37.879Z,101557.09
2019-02-18T14:22:06.876Z,101554.27
2019-02-18T14:24:33.927Z,101551.00
2019-02-18T14:27:05.567Z,101545.77
2019-02-18T14:29:32.631Z,101539.94
2019-02-18T14:32:01.529Z,101532.52
2019-02-18T14:34:29.070Z,101539.79
2019-02-18T14:36:56.104Z,101532.55
2019-02-18T14:39:25.195Z,101530.70
2019-02-18T14:41:54.049Z,101524.98
2019-02-18T14:44:21.188Z,101529.30
2019-02-18T14:46:48.757Z,101533.30
2019-02-18T14:49:18.778Z,101534.25
2019-02-18T14:51:46.437Z,101533.12
2019-02-18T14:54:15.224Z,101526.05
2019-02-18T14:56:42.577Z,101520.86
2019-02-18T14:59:09.939Z,101528.31
2019-02-18T15:01:37.393Z,101524.14
2019-02-18T15:04:05.561Z,101527.48
2019-02-18T15:06:33.222Z,101526.05
2019-02-18T15:09:00.885Z,101520.95
2019-02-18T15:11:28.858Z,101517.63
2019-02-18T15:13:56.215Z,101524.39
2019-02-18T15:16:25.298Z,101508.90
2019-02-18T15:18:53.413Z,101514.31
2019-02-18T15:21:20.468Z,101509.33
2019-02-18T15:23:47.915Z,101503.63
2019-02-18T15:26:15.339Z,101501.87
2019-02-18T15:28:42.482Z,101502.05
2019-02-18T15:31:09.549Z,101501.61
2019-02-18T15:33:37.802Z,101497.51
2019-02-18T15:36:04.873Z,101484.40
2019-02-18T15:38:32.026Z,101485.95
2019-02-18T15:40:59.387Z,101491.26
2019-02-18T15:43:26.818Z,101484.05
2019-02-18T15:45:53.941Z,101480.66
2019-02-18T15:48:21.501Z,101476.81
2019-02-18T15:50:48.598Z,101481.20
2019-02-18T15:53:16.054Z,101478.06
2019-02-18T15:55:43.111Z,101479.07
2019-02-18T15:58:11.502Z,101473.61
2019-02-18T16:00:38.810Z,101471.98
2019-02-18T16:03:06.422Z,101473.94
2019-02-18T16:05:34.034Z,101468.94
2019-02-18T16:08:01.692Z,101471.23
2019-02-18T16:10:29.455Z,101470.64
2019-02-18T16:12:56.810Z,101471.28
2019-02-18T16:15:24.777Z,101471.28
2019-02-18T16:17:52.135Z,101471.95
2019-02-18T16:20:20.000Z,101471.08
2019-02-18T16:22:47.582Z,101467.81
2019-02-18T16:25:18.097Z,101471.51
2019-02-18T16:27:45.548Z,101471.64
2019-02-18T16:30:13.012Z,101473.38
2019-02-18T16:32:40.688Z,101467.45
2019-02-18T16:35:08.378Z,101468.09
2019-02-18T16:37:36.122Z,101464.20
2019-02-18T16:40:04.328Z,101468.40
2019-02-18T16:42:33.287Z,101463.05
2019-02-18T16:45:00.776Z,101470.34
2019-02-18T16:47:29.411Z,101466.22
2019-02-18T16:49:56.531Z,101466.97
2019-02-18T16:52:24.744Z,101463.57
2019-02-18T16:54:52.120Z,101468.38
2019-02-18T16:57:21.285Z,101465.19
2019-02-18T16:59:49.039Z,101462.59
2019-02-18T17:02:16.432Z,101463.66
2019-02-18T17:04:44.373Z,101457.70
2019-02-18T17:07:11.761Z,101460.47
2019-02-18T17:09:38.814Z,101456.17
2019-02-18T17:12:05.951Z,101460.33
2019-02-18T17:14:33.025Z,101454.77
2019-02-18T17:17:00.073Z,101463.22
2019-02-18T17:19:27.486Z,101462.88
2019-02-18T17:21:55.535Z,101465.56
2019-02-18T17:24:22.644Z,101463.76
2019-02-18T17:26:52.089Z,101460.20
2019-02-18T17:29:19.588Z,101462.68
2019-02-18T17:31:48.444Z,101456.14
2019-02-18T17:34:15.521Z,101454.07
2019-02-18T17:36:42.971Z,101450.74
2019-02-18T17:39:10.051Z,101448.50
2019-02-18T17:41:37.207Z,101441.56
2019-02-18T17:44:04.998Z,101440.80
2019-02-18T17:46:32.357Z,101431.36
2019-02-18T17:48:59.431Z,101432.78
2019-02-18T17:51:27.064Z,101432.58
2019-02-18T17:53:55.134Z,101433.72
2019-02-18T17:56:23.208Z,101430.63
2019-02-18T17:58:51.626Z,101421.50
2019-02-18T18:01:19.869Z,101423.64
2019-02-18T18:03:47.522Z,101424.81
2019-02-18T18:06:15.043Z,101417.89
2019-02-18T18:08:43.540Z,101412.53
2019-02-18T18:11:11.037Z,101409.63
2019-02-18T18:13:38.088Z,101401.61
2019-02-18T18:16:05.156Z,101399.48
2019-02-18T18:18:32.690Z,101406.47
2019-02-18T18:20:59.782Z,101396.02
2019-02-18T18:23:26.815Z,101392.93
2019-02-18T18:25:53.862Z,101384.80
2019-02-18T18:28:21.515Z,101380.35
2019-02-18T18:30:50.061Z,101372.43
2019-02-18T18:33:19.869Z,101372.45
2019-02-18T18:35:47.444Z,101369.83
2019-02-18T18:38:14.595Z,101361.11
2019-02-18T18:40:41.663Z,101369.77
2019-02-18T18:43:08.747Z,101366.55
2019-02-18T18:45:37.458Z,101371.81
2019-02-18T18:48:05.035Z,101374.85
2019-02-18T18:50:32.714Z,101371.92
2019-02-18T18:53:00.366Z,101375.38
2019-02-18T18:55:28.003Z,101372.34
2019-02-18T18:57:56.568Z,101377.66
2019-02-18T19:00:23.804Z,101372.49
2019-02-18T19:02:51.212Z,101366.58
